Data for 09/14/2016

Time Sea-Level Adjusted Pressure Absolute Pressure Temperature Relative Humidity Dew Point   
(mb) (inHg) (mb) (inHg) (C) (F) (%) (C) (F)
00:05 1020 30.12 849 25.07 5.4 41.7 80 2.2 35.9
00:10 1020 30.12 849 25.07 5.4 41.7 80 2.2 35.9
00:15 1019 30.09 849 25.07 5.3 41.6 80 2.1 35.9
00:20 1019 30.09 849 25.07 5.3 41.6 80 2.2 35.9
00:25 1019 30.09 849 25.07 5.3 41.5 80 2.2 35.9
00:30 1019 30.09 849 25.07 5.2 41.4 80 2.1 35.8
00:35 1020 30.12 849 25.07 5.2 41.4 80 2.1 35.7
00:40 1020 30.12 849 25.07 5.2 41.3 80 2 35.7
00:45 1020 30.12 849 25.07 5.2 41.4 80 2.1 35.8
00:50 1020 30.12 849 25.07 5.2 41.4 80 2.1 35.8
00:55 1020 30.12 849 25.07 5.1 41.3 81 2.1 35.7
01:00 1020 30.12 849 25.07 5.1 41.2 81 2 35.7
01:05 1020 30.12 849 25.07 5.1 41.2 81 2 35.7
01:10 1020 30.12 849 25.07 5 41.1 81 2 35.6
01:15 1020 30.12 849 25.07 5 41 81 2 35.7
01:20 1020 30.12 849 25.07 5 40.9 81 2 35.6
01:25 1020 30.12 849 25.07 4.9 40.9 82 2 35.7
01:30 1020 30.12 849 25.07 4.9 40.8 82 2 35.7
01:35 1020 30.12 849 25.07 4.9 40.8 82 2 35.7
01:40 1020 30.12 849 25.07 4.8 40.7 82 2 35.6
01:45 1020 30.12 849 25.07 4.8 40.6 82 2 35.6
01:50 1020 30.12 849 25.07 4.7 40.5 83 2 35.6
01:55 1019 30.09 849 25.07 4.7 40.5 83 2 35.6
02:00 1019 30.09 849 25.07 4.7 40.5 83 2 35.7
02:05 1019 30.09 848 25.04 4.7 40.5 83 2 35.6
02:10 1019 30.09 848 25.04 4.8 40.6 82 2 35.7
02:15 1019 30.09 848 25.04 4.8 40.6 83 2.1 35.7
02:20 1019 30.09 848 25.04 4.7 40.5 83 2 35.6
02:25 1019 30.09 848 25.04 4.7 40.5 83 2.1 35.7
02:30 1019 30.09 848 25.04 4.7 40.4 83 2 35.7
02:35 1019 30.09 848 25.04 4.7 40.4 83 2.1 35.7
02:40 1019 30.09 848 25.04 4.7 40.5 83 2 35.7
02:45 1019 30.09 848 25.04 4.7 40.5 83 2.1 35.7
02:50 1019 30.09 848 25.04 4.7 40.5 83 2.1 35.7
02:55 1019 30.09 848 25.04 4.7 40.5 83 2 35.7
03:00 1019 30.09 848 25.04 4.8 40.6 83 2 35.7
03:05 1019 30.09 848 25.04 4.8 40.6 82 2.1 35.7
03:10 1019 30.09 848 25.04 4.8 40.6 82 2 35.7
03:15 1019 30.09 848 25.04 4.8 40.7 82 2 35.7
03:20 1019 30.09 848 25.04 4.8 40.6 82 2 35.6
03:25 1019 30.09 848 25.04 4.8 40.6 82 2 35.6
03:30 1019 30.09 848 25.04 4.8 40.6 83 2 35.7
03:35 1019 30.09 848 25.04 4.7 40.5 83 2 35.7
03:40 1019 30.09 848 25.04 4.7 40.5 83 2 35.6
03:45 1019 30.09 848 25.04 4.7 40.5 83 2 35.7
03:50 1019 30.09 848 25.04 4.7 40.4 83 2 35.5
03:55 1019 30.09 848 25.04 4.6 40.3 83 2 35.5
04:00 1019 30.09 848 25.04 4.6 40.3 83 2 35.5
04:05 1019 30.09 848 25.04 4.6 40.2 83 1.9 35.5
04:10 1019 30.09 848 25.04 4.4 40 84 1.9 35.5
04:15 1019 30.09 848 25.04 4.4 39.9 84 1.9 35.4
04:20 1019 30.09 848 25.04 4.3 39.7 84 1.9 35.4
04:25 1019 30.09 848 25.04 4.2 39.5 85 1.9 35.3
04:30 1019 30.09 848 25.04 4.1 39.3 85 1.9 35.3
04:35 1019 30.09 848 25.04 4 39.2 85 1.8 35.2
04:40 1019 30.09 849 25.07 4 39.1 86 1.8 35.3
04:45 1019 30.09 849 25.07 3.9 39.1 86 1.8 35.3
04:50 1019 30.09 848 25.04 3.8 38.9 86 1.8 35.2
04:55 1019 30.09 848 25.04 3.7 38.7 87 1.7 35.1
05:00 1019 30.09 848 25.04 3.7 38.6 87 1.7 35
05:05 1019 30.09 848 25.04 3.6 38.5 87 1.7 35
05:10 1019 30.09 848 25.04 3.6 38.4 87 1.6 35
05:15 1019 30.09 848 25.04 3.5 38.3 87 1.6 34.9
05:20 1019 30.09 848 25.04 3.5 38.3 87 1.6 34.9
05:25 1019 30.09 848 25.04 3.5 38.3 88 1.6 34.9
05:30 1019 30.09 848 25.04 3.5 38.3 88 1.6 34.9
05:35 1019 30.09 848 25.04 3.5 38.4 87 1.6 34.9
05:40 1019 30.09 848 25.04 3.5 38.3 87 1.6 34.8
05:45 1019 30.09 848 25.04 3.5 38.2 87 1.5 34.7
05:50 1019 30.09 848 25.04 3.5 38.2 87 1.5 34.8
05:55 1019 30.09 848 25.04 3.4 38.2 87 1.5 34.7
06:00 1019 30.09 848 25.04 3.5 38.3 87 1.5 34.7
06:05 1019 30.09 848 25.04 3.4 38.2 87 1.5 34.6
06:10 1019 30.09 848 25.04 3.3 38 87 1.4 34.5
06:15 1019 30.09 848 25.04 3.3 37.9 88 1.4 34.5
06:20 1019 30.09 848 25.04 3.4 38 87 1.4 34.6
06:25 1019 30.09 848 25.04 3.4 38.1 88 1.5 34.7
06:30 1019 30.09 848 25.04 3.4 38 87 1.5 34.6
06:35 1019 30.09 848 25.04 3.3 37.9 87 1.4 34.5
06:40 1019 30.09 848 25.04 3.2 37.8 87 1.3 34.4
06:45 1019 30.09 848 25.04 3.1 37.6 88 1.3 34.4
06:50 1019 30.09 848 25.04 3.1 37.6 88 1.2 34.2
06:55 1019 30.09 848 25.04 2.9 37.2 88 1.2 34.1
07:00 1019 30.09 848 25.04 2.8 37.1 89 1.2 34.2
07:05 1019 30.09 848 25.04 2.8 37.1 89 1.2 34.2
07:10 1019 30.09 848 25.04 2.9 37.3 89 1.3 34.4
07:15 1019 30.09 848 25.04 3 37.3 89 1.3 34.4
07:20 1019 30.09 848 25.04 3.1 37.6 88 1.4 34.5
07:25 1019 30.09 848 25.04 3.3 37.9 88 1.5 34.7
07:30 1019 30.09 848 25.04 3.3 37.9 88 1.4 34.5
07:35 1019 30.09 848 25.04 3.2 37.8 88 1.4 34.6
07:40 1018 30.06 848 25.04 3.3 37.9 88 1.4 34.5
07:45 1018 30.06 848 25.04 3.4 38 87 1.4 34.6
07:50 1018 30.06 848 25.04 3.4 38.2 87 1.5 34.7
07:55 1018 30.06 848 25.04 3.5 38.3 87 1.5 34.7
08:00 1018 30.06 848 25.04 3.6 38.5 86 1.6 34.8
08:05 1018 30.06 847 25.01 3.8 38.8 86 1.6 35
08:10 1018 30.06 847 25.01 3.9 39.1 86 1.7 35.1
08:15 1018 30.06 847 25.01 4.1 39.4 85 1.8 35.2
08:20 1018 30.06 847 25.01 4.3 39.7 84 1.8 35.3
08:25 1018 30.06 847 25.01 4.5 40.1 83 2 35.5
08:30 1018 30.06 847 25.01 4.6 40.3 83 2 35.5
08:35 1018 30.06 847 25.01 4.7 40.5 83 2 35.7
08:40 1018 30.06 847 25.01 4.9 40.8 83 2.2 35.9
08:45 1018 30.06 847 25.01 5.1 41.1 82 2.2 35.9
08:50 1018 30.06 847 25.01 5.3 41.5 82 2.4 36.4
08:55 1018 30.06 848 25.04 5.5 41.9 81 2.4 36.3
09:00 1018 30.06 848 25.04 5.7 42.2 80 2.4 36.4
09:05 1018 30.06 848 25.04 5.7 42.3 80 2.6 36.6
09:10 1018 30.06 848 25.04 5.9 42.6 80 2.6 36.7
09:15 1019 30.09 848 25.04 6.1 42.9 79 2.8 37
09:20 1019 30.09 848 25.04 6.1 43 79 2.7 36.9
09:25 1019 30.09 848 25.04 6.1 42.9 79 2.7 36.8
09:30 1019 30.09 848 25.04 6 42.9 80 2.8 37
09:35 1019 30.09 848 25.04 6 42.8 80 2.8 37.1
09:40 1019 30.09 848 25.04 6 42.8 81 2.9 37.2
09:45 1019 30.09 848 25.04 5.9 42.6 81 2.9 37.3
09:50 1019 30.09 848 25.04 6 42.7 80 2.8 37.1
09:55 1019 30.09 848 25.04 6.1 43.1 80 2.9 37.3
10:00 1019 30.09 848 25.04 6.2 43.2 79 2.9 37.2
10:05 1019 30.09 848 25.04 6.1 42.9 81 3 37.3
10:10 1019 30.09 848 25.04 6.2 43.1 80 2.9 37.2
10:15 1019 30.09 848 25.04 6.2 43.2 80 3 37.3
10:20 1019 30.09 848 25.04 6.3 43.3 79 2.9 37.3
10:25 1019 30.09 848 25.04 6.4 43.5 80 3.1 37.6
10:30 1019 30.09 848 25.04 6.4 43.6 79 3.1 37.5
10:35 1019 30.09 848 25.04 6.5 43.7 78 3 37.4
10:40 1019 30.09 848 25.04 6.6 43.9 79 3.2 37.7
10:45 1019 30.09 848 25.04 6.7 44.1 77 3.1 37.5
10:50 1019 30.09 848 25.04 6.7 44.1 78 3.2 37.8
10:55 1019 30.09 848 25.04 6.7 44 78 3.1 37.5
11:00 1019 30.09 848 25.04 6.7 44.1 78 3.1 37.6
11:05 1019 30.09 848 25.04 6.8 44.3 77 3.2 37.7
11:10 1019 30.09 849 25.07 6.9 44.3 77 3.1 37.6
11:15 1019 30.09 849 25.07 6.8 44.2 78 3.3 37.9
11:20 1019 30.09 849 25.07 6.7 44.1 79 3.3 37.9
11:25 1019 30.09 849 25.07 6.8 44.2 79 3.4 38.1
11:30 1019 30.09 849 25.07 6.9 44.4 79 3.4 38.1
11:35 1019 30.09 849 25.07 7 44.7 77 3.2 37.8
11:40 1019 30.09 849 25.07 6.8 44.3 79 3.5 38.3
11:45 1019 30.09 849 25.07 6.8 44.2 81 3.7 38.7
11:50 1019 30.09 849 25.07 6.8 44.2 82 4 39.2
11:55 1019 30.09 849 25.07 6.8 44.2 81 3.7 38.7
12:00 1019 30.09 849 25.07 6.7 44 82 3.9 39
12:05 1019 30.09 849 25.07 6.6 43.8 83 3.8 38.8
12:10 1019 30.09 849 25.07 6.8 44.3 84 4.3 39.8
12:15 1019 30.09 849 25.07 7.1 44.7 81 4.1 39.4
12:20 1019 30.09 849 25.07 7.1 44.8 84 4.5 40.1
12:25 1019 30.09 849 25.07 7.1 44.7 85 4.8 40.6
12:30 1019 30.09 849 25.07 7.3 45.1 84 4.7 40.4
12:35 1019 30.09 849 25.07 7.2 45 83 4.6 40.3
12:40 1019 30.09 849 25.07 7.1 44.8 86 4.9 40.8
12:45 1020 30.12 849 25.07 7.2 44.9 82 4.4 39.9
12:50 1020 30.12 849 25.07 7.1 44.8 82 4.3 39.7
12:55 1020 30.12 849 25.07 7.1 44.8 82 4.3 39.8
13:00 1020 30.12 849 25.07 7.2 45 84 4.6 40.4
13:05 1020 30.12 849 25.07 7.3 45.2 83 4.6 40.3
13:10 1020 30.12 849 25.07 7.3 45.1 83 4.5 40.2
13:15 1020 30.12 849 25.07 7.5 45.4 83 4.8 40.6
13:20 1020 30.12 849 25.07 7.6 45.7 84 5.1 41.1
13:25 1020 30.12 849 25.07 7.8 46 84 5.3 41.5
13:30 1020 30.12 849 25.07 7.9 46.3 84 5.4 41.8
13:35 1020 30.12 849 25.07 8.1 46.5 84 5.5 41.9
13:40 1020 30.12 849 25.07 8.1 46.7 83 5.5 41.9
13:45 1020 30.12 849 25.07 8.3 46.9 82 5.4 41.8
13:50 1020 30.12 849 25.07 8.3 47 81 5.3 41.6
13:55 1020 30.12 849 25.07 8.4 47.1 82 5.5 41.9
14:00 1020 30.12 849 25.07 8.4 47.1 83 5.7 42.2
14:05 1020 30.12 849 25.07 8.3 47 82 5.5 41.9
14:10 1020 30.12 849 25.07 7.8 46 87 5.7 42.3
14:15 1020 30.12 849 25.07 7.8 46 86 5.6 42
14:20 1020 30.12 849 25.07 7.9 46.2 85 5.6 42
14:25 1020 30.12 849 25.07 8.1 46.7 84 5.6 42.1
14:30 1020 30.12 849 25.07 8.1 46.5 85 5.8 42.4
14:35 1020 30.12 849 25.07 8.1 46.5 84 5.6 42.1
14:40 1020 30.12 849 25.07 8 46.5 84 5.6 42
14:45 1020 30.12 849 25.07 8.1 46.6 85 5.7 42.3
14:50 1020 30.12 849 25.07 8.2 46.7 82 5.4 41.7
14:55 1020 30.12 849 25.07 8.1 46.6 82 5.2 41.4
15:00 1020 30.12 849 25.07 8 46.3 84 5.4 41.7
15:05 1020 30.12 849 25.07 7.9 46.1 85 5.6 42
15:10 1020 30.12 849 25.07 7.8 46.1 84 5.2 41.4
15:15 1020 30.12 849 25.07 7.9 46.3 83 5.2 41.4
15:20 1020 30.12 849 25.07 8.2 46.7 82 5.3 41.6
15:25 1020 30.12 849 25.07 8.5 47.4 81 5.5 41.8
15:30 1020 30.12 849 25.07 8.7 47.7 83 6 42.8
15:35 1020 30.12 849 25.07 9 48.1 81 5.9 42.6
15:40 1020 30.12 849 25.07 9 48.2 78 5.3 41.5
15:45 1020 30.12 849 25.07 8.9 48.1 80 5.7 42.2
15:50 1020 30.12 849 25.07 9 48.2 80 5.7 42.3
15:55 1020 30.12 849 25.07 9 48.2 79 5.5 41.9
16:00 1020 30.12 849 25.07 8.9 48 77 5.2 41.3
16:05 1020 30.12 849 25.07 8.9 47.9 79 5.4 41.7
16:10 1020 30.12 849 25.07 8.9 48.1 79 5.6 42
16:15 1020 30.12 849 25.07 9 48.1 81 5.9 42.6
16:20 1020 30.12 849 25.07 9 48.2 81 6 42.7
16:25 1020 30.12 849 25.07 9 48.2 81 6 42.8
16:30 1020 30.12 849 25.07 9 48.2 83 6.3 43.4
16:35 1020 30.12 850 25.1 9 48.3 82 6.1 43
16:40 1020 30.12 850 25.1 9 48.1 83 6.3 43.3
16:45 1020 30.12 850 25.1 9 48.1 83 6.2 43.2
16:50 1020 30.12 849 25.07 8.9 48 82 6 42.8
16:55 1020 30.12 849 25.07 8.8 47.9 83 6.1 43
17:00 1020 30.12 849 25.07 8.8 47.8 84 6.2 43.2
17:05 1020 30.12 849 25.07 8.5 47.2 86 6.3 43.3
17:10 1020 30.12 849 25.07 8.1 46.5 87 6.1 43
17:15 1020 30.12 849 25.07 7.9 46.2 89 6.1 43
17:20 1020 30.12 850 25.1 8.1 46.5 88 6.3 43.3
17:25 1020 30.12 850 25.1 8.1 46.5 88 6.2 43.1
17:30 1020 30.12 849 25.07 8 46.4 88 6.1 43
17:35 1020 30.12 849 25.07 7.9 46.3 89 6.2 43.2
17:40 1020 30.12 849 25.07 8 46.3 89 6.3 43.3
17:45 1020 30.12 850 25.1 8 46.3 89 6.3 43.3
17:50 1020 30.12 850 25.1 8 46.4 89 6.3 43.3
17:55 1020 30.12 850 25.1 8.1 46.6 89 6.4 43.5
18:00 1020 30.12 850 25.1 8.2 46.8 89 6.5 43.8
18:05 1020 30.12 850 25.1 8.2 46.8 89 6.6 43.8
18:10 1021 30.15 850 25.1 8.3 46.9 89 6.5 43.7
18:15 1021 30.15 850 25.1 8.3 47 89 6.6 43.9
18:20 1021 30.15 850 25.1 8.3 47 89 6.6 43.8
18:25 1021 30.15 850 25.1 8.3 46.9 89 6.6 43.8
18:30 1021 30.15 850 25.1 8.3 46.9 89 6.5 43.8
18:35 1021 30.15 850 25.1 8.2 46.8 88 6.4 43.5
18:40 1021 30.15 850 25.1 8.1 46.5 88 6.2 43.2
18:45 1021 30.15 850 25.1 8 46.4 88 6.2 43.2
18:50 1021 30.15 850 25.1 8.1 46.5 88 6.2 43.2
18:55 1021 30.15 850 25.1 8 46.4 88 6.2 43.1
19:00 1021 30.15 850 25.1 8 46.4 88 6.2 43.1
19:05 1021 30.15 850 25.1 7.9 46.3 89 6.2 43.1
19:10 1021 30.15 850 25.1 7.9 46.2 89 6.2 43.1
19:15 1021 30.15 850 25.1 7.9 46.2 89 6.2 43.2
19:20 1021 30.15 850 25.1 7.9 46.2 89 6.1 43
19:25 1021 30.15 850 25.1 7.6 45.6 88 5.7 42.2
19:30 1021 30.15 850 25.1 7.3 45.2 88 5.5 42
19:35 1021 30.15 850 25.1 7.4 45.2 89 5.7 42.2
19:40 1021 30.15 850 25.1 7.4 45.2 89 5.7 42.2
19:45 1021 30.15 850 25.1 7.3 45.1 88 5.5 41.9
19:50 1021 30.15 850 25.1 7.3 45.2 89 5.6 42.2
19:55 1021 30.15 850 25.1 7.4 45.3 89 5.7 42.3
20:00 1021 30.15 850 25.1 7.4 45.3 89 5.8 42.4
20:05 1021 30.15 850 25.1 7.5 45.5 89 5.9 42.5
20:10 1021 30.15 850 25.1 7.5 45.6 89 5.9 42.6
20:15 1021 30.15 850 25.1 7.6 45.6 90 6 42.7
20:20 1021 30.15 850 25.1 7.5 45.5 90 6.1 42.9
20:25 1021 30.15 850 25.1 7.5 45.5 91 6.1 43
20:30 1021 30.15 850 25.1 7.4 45.3 91 6 42.8
20:35 1021 30.15 850 25.1 7.4 45.2 91 6 42.8
20:40 1021 30.15 850 25.1 7.4 45.4 91 6.1 42.9
20:45 1021 30.15 850 25.1 7.5 45.5 91 6.1 43.1
20:50 1021 30.15 850 25.1 7.5 45.6 91 6.2 43.1
20:55 1021 30.15 851 25.13 7.5 45.5 91 6.1 43
21:00 1021 30.15 851 25.13 7.5 45.6 90 6 42.9
21:05 1021 30.15 851 25.13 7.6 45.7 90 6 42.9
21:10 1021 30.15 851 25.13 7.7 45.8 88 5.9 42.5
21:15 1021 30.15 851 25.13 7.8 46 88 5.9 42.6
21:20 1021 30.15 851 25.13 7.8 46.1 88 6 42.8
21:25 1021 30.15 851 25.13 7.8 46.1 88 6.1 42.9
21:30 1022 30.18 851 25.13 7.9 46.2 89 6.2 43.2
21:35 1022 30.18 851 25.13 7.9 46.2 89 6.2 43.1
21:40 1022 30.18 851 25.13 7.9 46.2 88 6.1 42.9
21:45 1022 30.18 851 25.13 7.9 46.2 88 6 42.9
21:50 1022 30.18 851 25.13 7.9 46.2 88 6 42.8
21:55 1022 30.18 851 25.13 7.9 46.2 88 6 42.8
22:00 1022 30.18 851 25.13 7.9 46.3 88 6.1 43
22:05 1022 30.18 851 25.13 8 46.3 88 6.1 43.1
22:10 1022 30.18 851 25.13 7.9 46.3 88 6 42.8
22:15 1022 30.18 851 25.13 7.9 46.3 88 6.1 43.1
22:20 1022 30.18 851 25.13 7.9 46.2 88 6 42.9
22:25 1022 30.18 851 25.13 7.9 46.2 88 6 42.9
22:30 1022 30.18 851 25.13 7.9 46.3 88 6.1 42.9
22:35 1022 30.18 851 25.13 8.1 46.6 88 6.3 43.3
22:40 1022 30.18 851 25.13 8.1 46.6 88 6.2 43.2
22:45 1022 30.18 851 25.13 8.2 46.7 87 6.2 43.2
22:50 1022 30.18 851 25.13 8.2 46.7 88 6.3 43.3
22:55 1022 30.18 851 25.13 8.2 46.7 88 6.3 43.3
23:00 1022 30.18 851 25.13 8.1 46.5 88 6.3 43.3
23:05 1022 30.18 851 25.13 8 46.5 88 6.3 43.3
23:10 1022 30.18 851 25.13 8.1 46.5 89 6.3 43.4
23:15 1022 30.18 851 25.13 8 46.3 89 6.3 43.3
23:20 1021 30.15 851 25.13 7.9 46.1 90 6.3 43.4
23:25 1021 30.15 851 25.13 7.8 46 91 6.4 43.4
23:30 1021 30.15 851 25.13 7.7 45.9 91 6.3 43.4
23:35 1021 30.15 851 25.13 7.7 45.8 91 6.3 43.3
23:40 1021 30.15 851 25.13 7.7 45.9 90 6.2 43.2
23:45 1021 30.15 851 25.13 7.8 46 90 6.3 43.3
23:50 1021 30.15 850 25.1 7.7 45.9 91 6.3 43.3
23:55 1021 30.15 850 25.1 7.7 45.8 91 6.3 43.3
24:00 1021 30.15 850 25.1 7.6 45.7 91 6.2 43.2